Time;durP1;ratioP1;P1;durP2;ratioP2;P2;SDS_P1;SDS_P2;PMS_P1;PMS_P2;Temp;Humidity;BMP_temperature;BMP_pressure;BME280_temperature;BME280_humidity;BME280_pressure;Samples;Min_cycle;Max_cycle;Signal;HPM_P1;HPM_P2
2021/01/23 00:02:04;;;;;;;2.10;1.40;;;3.20;99.90;;;;;;5052693;28;20188;-57
2021/01/23 00:04:30;;;;;;;1.45;1.35;;;3.20;99.90;;;;;;5061613;28;20186;-58
2021/01/23 00:06:56;;;;;;;1.33;1.23;;;3.30;99.90;;;;;;5068511;28;20208;-58
2021/01/23 00:09:22;;;;;;;2.00;1.80;;;3.10;99.90;;;;;;5058707;28;20212;-58
2021/01/23 00:11:49;;;;;;;1.90;1.73;;;3.20;99.90;;;;;;5068876;28;20213;-58
2021/01/23 00:14:15;;;;;;;2.15;1.70;;;3.30;99.90;;;;;;5067809;28;20314;-57
2021/01/23 00:16:41;;;;;;;1.60;1.50;;;3.10;99.90;;;;;;5062561;28;20267;-58
2021/01/23 00:19:07;;;;;;;1.30;1.20;;;3.30;99.90;;;;;;5066252;28;20455;-58
2021/01/23 00:21:33;;;;;;;1.23;1.00;;;3.20;99.90;;;;;;5068739;28;20713;-58
2021/01/23 00:23:58;;;;;;;1.50;1.40;;;3.30;99.90;;;;;;5067794;28;20193;-57
2021/01/23 00:26:24;;;;;;;1.50;1.40;;;3.40;99.90;;;;;;5064063;28;20297;-58
2021/01/23 00:28:49;;;;;;;1.63;1.40;;;3.40;99.90;;;;;;5065398;28;20212;-58
2021/01/23 00:31:15;;;;;;;1.30;1.20;;;3.30;99.90;;;;;;5067832;28;20208;-58
2021/01/23 00:33:41;;;;;;;1.60;1.50;;;3.20;99.90;;;;;;5056604;28;20193;-58
2021/01/23 00:36:06;;;;;;;1.63;1.53;;;3.10;99.90;;;;;;5059034;28;20228;-58
2021/01/23 00:38:32;;;;;;;1.80;1.70;;;3.20;99.90;;;;;;5057100;28;20214;-58
2021/01/23 00:40:59;;;;;;;2.27;2.13;;;3.10;99.90;;;;;;5061336;28;20196;-57
2021/01/23 00:43:24;;;;;;;2.22;2.03;;;3.40;99.90;;;;;;5058234;28;20586;-57
2021/01/23 00:45:50;;;;;;;2.47;2.27;;;3.40;99.90;;;;;;5066279;28;20192;-57
2021/01/23 00:48:16;;;;;;;2.70;2.50;;;3.30;99.90;;;;;;5056101;28;20204;-58
2021/01/23 00:50:41;;;;;;;2.63;2.43;;;3.40;99.90;;;;;;5055890;28;20289;-57
2021/01/23 00:53:07;;;;;;;2.63;2.43;;;3.60;99.90;;;;;;5068446;28;20181;-57
2021/01/23 00:55:33;;;;;;;3.27;2.97;;;3.40;99.90;;;;;;5056989;28;20236;-57
2021/01/23 00:57:58;;;;;;;3.30;2.50;;;3.50;99.90;;;;;;5056261;28;20177;-56
2021/01/23 01:00:24;;;;;;;2.87;2.67;;;3.80;99.90;;;;;;5051572;28;20542;-58
2021/01/23 01:02:50;;;;;;;3.40;3.10;;;3.60;99.90;;;;;;5062856;28;20193;-58
2021/01/23 01:05:16;;;;;;;3.63;3.33;;;3.30;99.90;;;;;;5058192;28;20926;-57
2021/01/23 01:07:42;;;;;;;3.47;3.17;;;3.20;99.90;;;;;;5060672;28;20284;-58
2021/01/23 01:10:09;;;;;;;3.40;2.88;;;3.10;99.90;;;;;;5058308;28;20684;-57
2021/01/23 01:12:35;;;;;;;3.85;3.38;;;3.00;99.90;;;;;;5056324;28;20295;-58
2021/01/23 01:15:00;;;;;;;4.03;3.63;;;3.40;99.90;;;;;;5061723;28;20181;-57
2021/01/23 01:17:26;;;;;;;4.60;4.20;;;3.20;99.90;;;;;;5073109;28;20628;-58
2021/01/23 01:19:52;;;;;;;4.57;4.10;;;3.40;99.90;;;;;;5058264;28;20209;-57
2021/01/23 01:22:17;;;;;;;4.93;4.40;;;3.10;99.90;;;;;;5067273;28;20436;-58
2021/01/23 01:24:43;;;;;;;5.67;4.60;;;3.10;99.90;;;;;;5064059;28;20190;-59
2021/01/23 01:27:09;;;;;;;5.10;4.60;;;3.30;99.90;;;;;;5064053;28;20196;-58
2021/01/23 01:29:34;;;;;;;4.80;4.40;;;3.30;99.90;;;;;;5069186;28;20207;-58
2021/01/23 01:32:00;;;;;;;5.80;5.10;;;3.40;99.90;;;;;;5059336;28;20226;-57
2021/01/23 01:34:26;;;;;;;7.00;6.30;;;3.50;99.90;;;;;;5054406;28;20440;-58
2021/01/23 01:36:51;;;;;;;5.87;5.33;;;3.40;99.90;;;;;;5061962;28;20239;-59
2021/01/23 01:39:17;;;;;;;5.80;5.23;;;3.70;99.90;;;;;;5052198;28;20588;-57
2021/01/23 01:41:43;;;;;;;6.40;5.80;;;3.50;99.90;;;;;;5066333;28;20192;-58
2021/01/23 01:44:10;;;;;;;5.67;5.13;;;3.50;99.90;;;;;;5070275;28;20275;-58
2021/01/23 01:46:36;;;;;;;5.03;4.50;;;3.20;99.90;;;;;;5059441;28;20238;-58
2021/01/23 01:49:03;;;;;;;5.95;5.15;;;3.80;99.90;;;;;;5071502;28;20669;-57
2021/01/23 01:51:29;;;;;;;4.30;3.90;;;3.80;99.90;;;;;;5065431;28;20213;-58
2021/01/23 01:53:56;;;;;;;4.33;3.70;;;3.70;99.90;;;;;;5056543;28;20560;-58
2021/01/23 01:56:21;;;;;;;3.72;3.42;;;3.60;99.90;;;;;;5065717;28;20200;-57
2021/01/23 01:58:47;;;;;;;3.63;3.33;;;3.70;99.90;;;;;;5061655;28;20639;-58
2021/01/23 02:01:13;;;;;;;2.93;2.70;;;3.60;99.90;;;;;;5063383;28;20197;-58
2021/01/23 02:04:03;;;;;;;4.47;3.63;;;3.60;99.90;;;;;;5056320;28;20196;-58
2021/01/23 02:06:41;;;;;;;2.97;2.78;;;4.00;99.90;;;;;;5063081;28;20845;-58
2021/01/23 02:09:18;;;;;;;2.63;2.42;;;4.00;99.90;;;;;;5069955;28;20247;-57
2021/01/23 02:12:21;;;;;;;4.70;2.40;;;3.90;99.90;;;;;;5059457;28;20292;-57
2021/01/23 02:15:09;;;;;;;2.17;2.00;;;3.90;99.90;;;;;;5070967;28;20180;-58
2021/01/23 02:17:46;;;;;;;2.60;2.40;;;4.10;99.90;;;;;;5062276;28;20198;-58
2021/01/23 02:20:50;;;;;;;2.10;2.00;;;4.00;99.90;;;;;;5057785;28;20280;-58
2021/01/23 02:23:18;;;;;;;1.90;1.80;;;4.00;99.90;;;;;;5066451;28;20188;-57
2021/01/23 02:25:59;;;;;;;2.40;2.00;;;4.00;99.90;;;;;;5059172;28;20268;-58
2021/01/23 02:28:50;;;;;;;1.70;1.58;;;4.20;99.90;;;;;;5067834;28;20235;-58
2021/01/23 02:31:19;;;;;;;2.42;1.80;;;4.10;99.90;;;;;;5057320;28;20206;-57
2021/01/23 02:33:48;;;;;;;2.03;1.92;;;4.20;99.90;;;;;;5058263;28;20295;-58
2021/01/23 02:36:15;;;;;;;3.15;2.30;;;4.00;99.90;;;;;;5064801;28;20208;-57
2021/01/23 02:38:42;;;;;;;2.35;2.25;;;4.00;99.90;;;;;;5070480;28;20181;-56
2021/01/23 02:41:09;;;;;;;2.20;2.00;;;3.70;99.90;;;;;;5068572;28;20627;-58
2021/01/23 02:43:41;;;;;;;2.03;1.83;;;3.80;99.90;;;;;;5070718;28;20182;-56
2021/01/23 02:46:08;;;;;;;2.10;1.90;;;3.80;99.90;;;;;;5067176;28;20189;-57
2021/01/23 02:48:34;;;;;;;1.83;1.73;;;3.90;99.90;;;;;;5069636;28;20294;-58
2021/01/23 02:51:01;;;;;;;1.73;1.63;;;4.20;99.90;;;;;;5064723;28;20653;-58
2021/01/23 02:53:31;;;;;;;1.40;1.30;;;4.00;99.90;;;;;;5069486;28;20191;-58
2021/01/23 02:56:02;;;;;;;1.73;1.63;;;4.10;99.90;;;;;;5076462;28;20213;-58
2021/01/23 02:58:31;;;;;;;1.60;1.50;;;3.90;99.90;;;;;;5065275;28;20183;-57
2021/01/23 03:01:02;;;;;;;1.65;1.55;;;4.20;99.90;;;;;;5065707;28;20198;-57
2021/01/23 03:03:30;;;;;;;2.55;2.10;;;4.10;99.90;;;;;;5054277;28;20182;-57
2021/01/23 03:05:55;;;;;;;3.85;1.60;;;3.90;99.90;;;;;;5066646;28;20195;-56
2021/01/23 03:08:21;;;;;;;1.50;1.40;;;3.90;99.90;;;;;;5077098;28;20626;-58
2021/01/23 03:10:47;;;;;;;3.10;1.80;;;4.10;99.90;;;;;;5069164;28;20506;-58
2021/01/23 03:13:14;;;;;;;1.70;1.60;;;3.90;99.90;;;;;;5067578;28;20192;-57
2021/01/23 03:15:43;;;;;;;2.20;1.42;;;4.00;99.90;;;;;;5058150;28;20190;-58
2021/01/23 03:18:10;;;;;;;1.75;1.40;;;3.80;99.90;;;;;;5061072;28;20675;-57
2021/01/23 03:20:36;;;;;;;2.00;1.70;;;4.00;99.90;;;;;;5069642;28;20237;-58
2021/01/23 03:23:03;;;;;;;2.90;1.90;;;4.00;99.90;;;;;;5063564;28;20612;-58
2021/01/23 03:25:29;;;;;;;1.70;1.60;;;3.70;99.90;;;;;;5069157;28;20190;-58
2021/01/23 03:27:56;;;;;;;1.65;1.55;;;4.00;99.90;;;;;;5064459;28;20182;-58
2021/01/23 03:30:23;;;;;;;2.10;1.90;;;4.00;99.90;;;;;;5069169;28;20292;-57
2021/01/23 03:32:49;;;;;;;2.05;1.85;;;3.90;99.90;;;;;;5056009;28;20227;-58
2021/01/23 03:35:15;;;;;;;1.95;1.85;;;3.90;99.90;;;;;;5067830;28;20557;-58
2021/01/23 03:37:41;;;;;;;2.58;1.80;;;4.10;99.90;;;;;;5056784;28;20713;-57
2021/01/23 03:40:08;;;;;;;2.00;1.80;;;4.10;99.90;;;;;;5069349;28;20209;-57
2021/01/23 03:42:34;;;;;;;2.20;2.00;;;4.30;99.90;;;;;;5065891;28;20553;-58
2021/01/23 03:45:00;;;;;;;1.80;1.70;;;4.00;99.90;;;;;;5058147;28;20189;-57
2021/01/23 03:47:26;;;;;;;2.60;2.00;;;4.20;99.90;;;;;;5064193;28;20210;-58
2021/01/23 03:49:52;;;;;;;2.05;1.80;;;4.00;99.90;;;;;;5069454;28;20204;-58
2021/01/23 03:52:18;;;;;;;2.13;1.93;;;4.00;99.90;;;;;;5070512;28;20221;-58
2021/01/23 03:54:43;;;;;;;2.10;1.90;;;4.30;99.90;;;;;;5056548;28;20812;-58
2021/01/23 03:57:09;;;;;;;2.53;1.97;;;4.50;99.90;;;;;;5058319;28;20610;-58
2021/01/23 03:59:35;;;;;;;1.85;1.75;;;4.40;99.90;;;;;;5061032;28;20724;-58
2021/01/23 04:02:02;;;;;;;1.80;1.70;;;4.20;99.90;;;;;;5066954;28;20188;-58
2021/01/23 04:04:27;;;;;;;1.80;1.70;;;4.20;99.90;;;;;;5054985;28;20442;-58
2021/01/23 04:06:54;;;;;;;2.23;1.63;;;4.50;99.90;;;;;;5069951;28;20189;-56
2021/01/23 04:09:20;;;;;;;2.85;2.22;;;4.40;99.90;;;;;;5069173;28;20359;-58
2021/01/23 04:11:45;;;;;;;1.87;1.70;;;4.40;99.90;;;;;;5059759;28;20297;-57
2021/01/23 04:14:11;;;;;;;2.13;1.83;;;4.30;99.90;;;;;;5069120;28;20446;-57
2021/01/23 04:16:37;;;;;;;1.90;1.80;;;4.20;99.90;;;;;;5058410;28;20280;-57
2021/01/23 04:19:04;;;;;;;1.90;1.80;;;4.40;99.90;;;;;;5068512;28;20377;-57
2021/01/23 04:21:29;;;;;;;2.15;1.58;;;4.30;99.90;;;;;;5060887;28;20255;-57
2021/01/23 04:23:55;;;;;;;2.00;1.87;;;4.30;99.90;;;;;;5062429;28;20188;-58
2021/01/23 04:26:21;;;;;;;5.03;1.87;;;4.30;99.90;;;;;;5058147;28;20379;-58
2021/01/23 04:28:46;;;;;;;2.10;1.80;;;4.20;99.90;;;;;;5067544;28;20188;-57
2021/01/23 04:31:12;;;;;;;2.03;1.83;;;4.30;99.90;;;;;;5068496;28;20209;-58
2021/01/23 04:33:38;;;;;;;2.55;1.80;;;4.10;99.90;;;;;;5056466;28;20188;-57
2021/01/23 04:36:05;;;;;;;2.03;1.80;;;4.50;99.90;;;;;;5068241;28;20600;-57
2021/01/23 04:38:31;;;;;;;2.00;1.90;;;4.20;99.90;;;;;;5055176;28;20211;-58
2021/01/23 04:40:57;;;;;;;2.15;1.95;;;4.20;99.90;;;;;;5061386;28;20203;-58
2021/01/23 04:43:24;;;;;;;1.90;1.80;;;4.60;99.90;;;;;;5064225;28;20676;-58
2021/01/23 04:45:50;;;;;;;2.60;1.85;;;4.30;99.90;;;;;;5062260;28;20206;-56
2021/01/23 04:48:17;;;;;;;3.60;2.03;;;4.50;99.90;;;;;;5067661;28;20234;-58
2021/01/23 04:50:44;;;;;;;2.78;2.10;;;4.30;99.90;;;;;;5067753;28;20671;-58
2021/01/23 04:53:11;;;;;;;1.60;1.50;;;4.10;99.90;;;;;;5056798;28;20245;-58
2021/01/23 04:55:37;;;;;;;1.73;1.63;;;4.40;99.90;;;;;;5063753;28;20178;-59
2021/01/23 04:58:03;;;;;;;1.77;1.63;;;4.40;99.90;;;;;;5050725;28;20272;-57
2021/01/23 05:00:28;;;;;;;1.53;1.43;;;4.40;99.90;;;;;;5062576;28;20209;-58
2021/01/23 05:02:59;;;;;;;2.30;2.10;;;4.60;99.90;;;;;;5058428;28;21020;-58
2021/01/23 05:05:24;;;;;;;1.67;1.45;;;4.30;99.90;;;;;;5060590;28;20275;-56
2021/01/23 05:07:50;;;;;;;2.00;1.37;;;4.40;99.90;;;;;;5056559;28;20274;-57
2021/01/23 05:10:24;;;;;;;1.83;1.73;;;4.40;99.90;;;;;;5063812;28;20236;-57
2021/01/23 05:12:51;;;;;;;2.17;1.98;;;4.30;99.90;;;;;;5067127;28;20201;-57
2021/01/23 05:15:31;;;;;;;1.90;1.80;;;4.60;99.90;;;;;;5067289;28;20179;-56
2021/01/23 05:18:00;;;;;;;1.75;1.65;;;4.00;99.90;;;;;;5065909;28;20235;-57
2021/01/23 05:20:40;;;;;;;2.42;2.10;;;4.40;99.90;;;;;;5065510;28;20755;-57
2021/01/23 05:23:10;;;;;;;1.80;1.70;;;4.60;99.90;;;;;;5067007;28;20286;-57
2021/01/23 05:25:37;;;;;;;2.30;2.10;;;4.50;99.90;;;;;;5061789;28;20184;-55
2021/01/23 05:28:05;;;;;;;2.08;1.95;;;4.30;99.90;;;;;;5067648;28;20265;-58
2021/01/23 05:30:44;;;;;;;3.08;2.28;;;4.20;99.90;;;;;;5069154;28;20566;-58
2021/01/23 05:33:15;;;;;;;1.83;1.65;;;4.20;99.90;;;;;;5059043;28;20273;-57
2021/01/23 05:35:42;;;;;;;2.58;1.88;;;4.40;99.90;;;;;;5067469;28;20180;-58
2021/01/23 05:38:40;;;;;;;2.80;1.60;;;4.40;99.90;;;;;;5055458;28;20207;-58
2021/01/23 05:41:08;;;;;;;1.70;1.60;;;4.40;99.90;;;;;;5054076;28;20186;-59
2021/01/23 05:43:43;;;;;;;1.65;1.55;;;4.10;99.90;;;;;;5057808;28;20519;-59
2021/01/23 05:46:18;;;;;;;1.50;1.40;;;4.30;99.90;;;;;;5057351;28;20191;-59
2021/01/23 05:48:48;;;;;;;2.08;1.75;;;4.20;99.90;;;;;;5055184;28;20483;-58
2021/01/23 05:51:16;;;;;;;3.10;1.85;;;4.30;99.90;;;;;;5065711;28;20201;-58
2021/01/23 05:53:43;;;;;;;2.47;2.15;;;4.20;99.90;;;;;;5070582;28;20182;-57
2021/01/23 05:56:09;;;;;;;1.73;1.63;;;4.50;99.90;;;;;;5056194;28;20185;-58
2021/01/23 05:58:37;;;;;;;3.05;2.03;;;4.40;99.90;;;;;;5064960;28;20662;-58
2021/01/23 06:01:08;;;;;;;2.10;1.85;;;4.50;99.90;;;;;;5050483;28;20181;-58
2021/01/23 06:03:40;;;;;;;2.30;2.10;;;4.20;99.90;;;;;;5069046;28;20192;-54
2021/01/23 06:06:05;;;;;;;2.20;2.00;;;4.40;99.90;;;;;;5056349;28;20444;-56
2021/01/23 06:08:41;;;;;;;1.77;1.67;;;4.40;99.90;;;;;;5057159;28;20669;-58
2021/01/23 06:11:36;;;;;;;1.98;1.73;;;4.40;99.90;;;;;;5056718;28;20205;-57
2021/01/23 06:14:02;;;;;;;3.05;1.95;;;4.30;99.90;;;;;;5047223;28;20190;-58
2021/01/23 06:16:36;;;;;;;2.03;1.40;;;4.10;99.90;;;;;;5055869;28;20200;-57
2021/01/23 06:19:05;;;;;;;1.85;1.75;;;4.20;99.90;;;;;;5060221;28;20253;-55
2021/01/23 06:21:52;;;;;;;1.90;1.80;;;3.50;99.90;;;;;;5053574;28;20182;-55
2021/01/23 06:24:43;;;;;;;4.82;2.03;;;4.30;99.90;;;;;;5062438;28;20595;-58
2021/01/23 06:27:09;;;;;;;1.95;1.85;;;4.20;99.90;;;;;;5074625;28;20541;-57
2021/01/23 06:29:45;;;;;;;2.47;2.03;;;4.10;99.90;;;;;;5071813;28;20224;-58
2021/01/23 06:32:19;;;;;;;2.20;2.00;;;4.30;99.90;;;;;;5060025;28;20201;-57
2021/01/23 06:35:00;;;;;;;1.98;1.88;;;4.10;99.90;;;;;;5063941;28;20239;-58
2021/01/23 06:37:27;;;;;;;1.90;1.80;;;4.00;99.90;;;;;;5052345;28;20687;-57
2021/01/23 06:39:56;;;;;;;2.17;2.00;;;4.40;99.90;;;;;;5073807;28;20208;-57
2021/01/23 06:42:24;;;;;;;2.13;1.80;;;4.20;99.90;;;;;;5059036;28;20723;-58
2021/01/23 06:44:50;;;;;;;2.17;1.98;;;4.10;99.90;;;;;;5056437;28;20193;-58
2021/01/23 06:47:16;;;;;;;2.40;2.20;;;4.00;99.90;;;;;;5060405;28;20202;-57
2021/01/23 06:49:43;;;;;;;1.90;1.80;;;3.40;99.90;;;;;;5060939;28;20466;-58
2021/01/23 06:52:08;;;;;;;2.30;2.10;;;4.30;99.90;;;;;;5060812;28;20239;-57
2021/01/23 06:54:35;;;;;;;2.07;1.93;;;4.20;99.90;;;;;;5057319;28;20589;-56
2021/01/23 06:57:02;;;;;;;2.42;2.08;;;4.10;99.90;;;;;;5066992;28;21006;-56
2021/01/23 06:59:36;;;;;;;1.95;1.85;;;4.30;99.90;;;;;;5069418;28;20286;-56
2021/01/23 07:02:07;;;;;;;1.90;1.80;;;4.00;99.90;;;;;;5065690;28;20200;-57
2021/01/23 07:04:34;;;;;;;1.98;1.85;;;3.90;99.90;;;;;;5055785;28;20618;-55
2021/01/23 07:07:05;;;;;;;2.35;2.15;;;3.90;99.90;;;;;;5051139;28;20688;-56
2021/01/23 07:09:46;;;;;;;2.35;2.15;;;4.30;99.90;;;;;;5055378;28;20935;-57
2021/01/23 07:12:13;;;;;;;2.83;2.63;;;3.90;99.90;;;;;;5066992;28;20197;-56
2021/01/23 07:14:39;;;;;;;2.45;2.20;;;3.80;99.90;;;;;;5065614;28;20180;-57
2021/01/23 07:17:13;;;;;;;2.50;2.10;;;4.20;99.90;;;;;;5052354;28;20181;-57
2021/01/23 07:19:39;;;;;;;3.03;2.10;;;4.10;99.90;;;;;;5057591;28;20205;-56
2021/01/23 07:22:05;;;;;;;2.40;2.25;;;3.90;99.90;;;;;;5064028;28;20235;-56
2021/01/23 07:24:32;;;;;;;2.38;2.17;;;4.20;99.90;;;;;;5060651;28;20663;-57
2021/01/23 07:26:59;;;;;;;2.33;2.13;;;4.20;99.90;;;;;;5068702;28;20224;-56
2021/01/23 07:29:24;;;;;;;2.08;1.90;;;4.10;99.90;;;;;;5057461;28;20228;-56
2021/01/23 07:31:55;;;;;;;1.90;1.80;;;4.00;99.90;;;;;;5058808;28;20979;-56
2021/01/23 07:34:20;;;;;;;3.78;2.50;;;4.20;99.90;;;;;;5057625;28;20273;-58
2021/01/23 07:36:46;;;;;;;3.00;2.70;;;4.30;99.90;;;;;;5056670;28;20276;-56
2021/01/23 07:39:12;;;;;;;2.83;2.53;;;4.20;99.90;;;;;;5051350;28;20255;-57
2021/01/23 07:41:55;;;;;;;3.27;2.60;;;4.00;99.90;;;;;;5054585;28;20192;-57
2021/01/23 07:44:24;;;;;;;3.03;2.72;;;4.30;99.90;;;;;;5066992;28;20182;-56
2021/01/23 07:46:50;;;;;;;4.63;2.67;;;4.00;99.90;;;;;;5050652;28;20248;-56
2021/01/23 07:49:24;;;;;;;2.83;2.57;;;4.10;99.90;;;;;;5060185;28;20204;-57
2021/01/23 07:52:10;;;;;;;2.92;2.72;;;4.30;99.90;;;;;;5055022;28;20571;-57
2021/01/23 07:54:52;;;;;;;3.28;2.78;;;4.20;99.90;;;;;;5054456;28;20459;-57
2021/01/23 07:57:17;;;;;;;2.70;2.45;;;4.00;99.90;;;;;;5052481;28;20190;-55
2021/01/23 07:59:47;;;;;;;2.70;2.50;;;4.40;99.90;;;;;;5064642;28;20201;-57
2021/01/23 08:02:16;;;;;;;3.00;2.70;;;4.40;99.90;;;;;;5063628;28;20196;-58
2021/01/23 08:04:47;;;;;;;3.83;3.42;;;4.10;99.90;;;;;;5056606;28;20177;-57
2021/01/23 08:07:16;;;;;;;3.00;2.80;;;4.10;99.90;;;;;;5075650;28;20178;-58
2021/01/23 08:09:42;;;;;;;2.60;2.40;;;4.20;99.90;;;;;;5061409;28;20205;-57
2021/01/23 08:12:18;;;;;;;4.03;2.93;;;4.50;99.90;;;;;;5061491;28;20201;-57
2021/01/23 08:14:55;;;;;;;4.75;3.05;;;4.50;99.90;;;;;;5058197;28;20174;-56
2021/01/23 08:17:45;;;;;;;2.72;2.53;;;4.40;99.90;;;;;;5065192;28;20286;-57
2021/01/23 08:20:16;;;;;;;3.72;3.42;;;4.70;99.90;;;;;;5063274;28;20229;-57
2021/01/23 08:23:05;;;;;;;4.82;3.53;;;4.50;99.90;;;;;;5050391;28;20191;-57
2021/01/23 08:25:44;;;;;;;3.50;3.05;;;4.80;99.90;;;;;;5063130;28;20189;-58
2021/01/23 08:28:10;;;;;;;3.45;3.13;;;4.70;99.90;;;;;;5066266;28;20270;-56
2021/01/23 08:30:36;;;;;;;3.53;3.22;;;4.80;99.90;;;;;;5048953;28;20206;-57
2021/01/23 08:33:04;;;;;;;7.73;3.50;;;4.70;99.90;;;;;;5051817;28;20245;-57
2021/01/23 08:35:31;;;;;;;3.72;3.03;;;4.60;99.90;;;;;;5059743;28;20596;-57
2021/01/23 08:37:56;;;;;;;3.42;3.13;;;4.80;99.90;;;;;;5060813;28;20603;-57
2021/01/23 08:40:23;;;;;;;4.23;3.40;;;4.70;99.90;;;;;;5058100;28;20214;-57
2021/01/23 08:42:50;;;;;;;4.30;3.90;;;4.50;99.90;;;;;;5053634;28;20190;-57
2021/01/23 08:45:19;;;;;;;3.58;3.15;;;4.70;99.90;;;;;;5063466;28;20202;-57
2021/01/23 08:47:44;;;;;;;2.95;2.65;;;5.00;99.90;;;;;;5060168;28;20201;-56
2021/01/23 08:50:10;;;;;;;4.40;3.43;;;4.80;99.90;;;;;;5063083;28;20243;-57
2021/01/23 08:52:36;;;;;;;3.55;3.25;;;5.00;99.90;;;;;;5059869;28;20217;-58
2021/01/23 08:55:04;;;;;;;4.50;3.90;;;5.00;99.90;;;;;;5059968;28;20187;-57
2021/01/23 08:57:30;;;;;;;4.43;3.22;;;4.90;99.90;;;;;;5061343;28;20440;-58
2021/01/23 08:59:55;;;;;;;3.67;3.10;;;5.10;99.90;;;;;;5055277;28;20202;-57
2021/01/23 09:02:21;;;;;;;3.50;3.20;;;5.20;99.90;;;;;;5049856;28;20186;-58
2021/01/23 09:04:47;;;;;;;4.00;3.70;;;5.20;99.90;;;;;;5057764;28;20194;-58
2021/01/23 09:07:12;;;;;;;3.63;3.30;;;5.20;99.90;;;;;;5061214;28;20186;-58
2021/01/23 09:09:38;;;;;;;5.00;3.50;;;5.20;99.90;;;;;;5065218;28;20465;-59
2021/01/23 09:12:04;;;;;;;3.70;3.30;;;5.60;99.90;;;;;;5066223;28;20198;-58
2021/01/23 09:14:30;;;;;;;6.07;4.05;;;5.50;99.90;;;;;;5059104;28;20185;-58
2021/01/23 09:16:56;;;;;;;4.27;3.30;;;5.40;99.90;;;;;;5065055;28;20184;-58
2021/01/23 09:19:22;;;;;;;4.63;3.58;;;5.70;99.90;;;;;;5062959;28;20204;-58
2021/01/23 09:21:48;;;;;;;3.90;3.33;;;5.80;99.90;;;;;;5062103;28;20185;-57
2021/01/23 09:24:14;;;;;;;3.43;3.10;;;5.60;99.90;;;;;;5067571;28;20183;-58
2021/01/23 09:26:41;;;;;;;3.40;3.10;;;5.90;99.90;;;;;;5060742;28;20474;-57
2021/01/23 09:29:06;;;;;;;3.40;3.10;;;5.90;99.90;;;;;;5060696;28;20270;-59
2021/01/23 09:31:32;;;;;;;3.83;2.90;;;5.70;99.90;;;;;;5067798;28;20198;-58
2021/01/23 09:33:58;;;;;;;3.07;2.77;;;5.70;99.90;;;;;;5070742;28;20270;-58
2021/01/23 09:36:23;;;;;;;3.20;2.90;;;6.00;99.90;;;;;;5059268;28;20182;-58
2021/01/23 09:38:49;;;;;;;3.00;2.70;;;6.00;99.90;;;;;;5052839;28;20209;-59
2021/01/23 09:41:15;;;;;;;3.53;2.80;;;5.90;99.90;;;;;;5063861;28;20223;-58
2021/01/23 09:43:40;;;;;;;3.30;3.00;;;5.70;99.90;;;;;;5061556;28;20571;-58
2021/01/23 09:46:06;;;;;;;3.27;2.70;;;6.00;99.90;;;;;;5063181;28;20706;-57
2021/01/23 09:48:32;;;;;;;3.53;2.97;;;6.00;99.90;;;;;;5066601;28;20662;-58
2021/01/23 09:50:57;;;;;;;3.30;3.00;;;6.00;99.90;;;;;;5065528;28;20197;-59
2021/01/23 09:53:23;;;;;;;4.40;3.30;;;6.20;99.90;;;;;;5061860;28;20174;-59
2021/01/23 09:55:48;;;;;;;2.80;2.47;;;6.20;99.90;;;;;;5062567;28;20274;-57
2021/01/23 09:58:14;;;;;;;3.30;2.70;;;6.30;99.90;;;;;;5058999;28;20173;-58
2021/01/23 10:00:40;;;;;;;2.55;2.33;;;6.50;99.90;;;;;;5066106;28;20575;-58
2021/01/23 10:03:06;;;;;;;2.87;2.60;;;6.80;99.90;;;;;;5064261;28;20195;-57
2021/01/23 10:05:31;;;;;;;6.77;3.10;;;6.60;99.90;;;;;;5064123;28;20207;-59
2021/01/23 10:07:57;;;;;;;4.17;3.20;;;6.90;99.90;;;;;;5061627;28;20676;-58
2021/01/23 10:10:24;;;;;;;2.65;2.45;;;6.60;99.90;;;;;;5058015;28;20217;-59
2021/01/23 10:12:51;;;;;;;2.88;2.63;;;6.70;99.90;;;;;;5067728;28;20200;-58
2021/01/23 10:15:17;;;;;;;2.88;2.67;;;6.60;99.90;;;;;;5063886;28;20614;-58
2021/01/23 10:17:42;;;;;;;3.40;3.00;;;6.70;99.90;;;;;;5070802;28;20560;-57
2021/01/23 10:20:09;;;;;;;3.73;2.97;;;6.80;99.90;;;;;;5067963;28;20454;-58
2021/01/23 10:22:34;;;;;;;3.97;3.28;;;6.70;99.90;;;;;;5054613;28;20178;-58
2021/01/23 10:25:05;;;;;;;2.33;2.10;;;6.60;99.90;;;;;;5065290;28;20190;-58
2021/01/23 10:27:30;;;;;;;2.60;2.40;;;6.90;99.90;;;;;;5070190;28;20427;-58
2021/01/23 10:29:56;;;;;;;3.07;2.83;;;6.70;99.90;;;;;;5068249;28;20212;-58
2021/01/23 10:32:21;;;;;;;4.27;2.70;;;6.80;99.90;;;;;;5061633;28;20201;-58
2021/01/23 10:34:47;;;;;;;2.80;2.60;;;6.60;99.90;;;;;;5053527;28;20655;-58
2021/01/23 10:37:13;;;;;;;3.27;2.97;;;6.40;99.90;;;;;;5062226;28;20201;-58
2021/01/23 10:39:39;;;;;;;2.70;2.50;;;6.50;99.90;;;;;;5063574;28;20638;-57
2021/01/23 10:42:07;;;;;;;5.20;3.20;;;6.70;99.90;;;;;;5068093;28;20652;-57
2021/01/23 10:44:39;;;;;;;2.85;2.40;;;6.50;99.90;;;;;;5067752;28;20447;-58
2021/01/23 10:47:08;;;;;;;2.80;2.60;;;6.50;99.90;;;;;;5060368;28;20602;-57
2021/01/23 10:49:35;;;;;;;4.63;3.00;;;6.60;99.90;;;;;;5055549;28;20700;-57
2021/01/23 10:52:00;;;;;;;3.35;3.03;;;6.80;99.90;;;;;;5063456;28;20254;-56
2021/01/23 10:54:27;;;;;;;3.03;2.73;;;6.80;99.90;;;;;;5062219;28;20185;-57
2021/01/23 10:56:53;;;;;;;3.08;2.70;;;7.10;99.90;;;;;;5061456;28;20611;-56
2021/01/23 10:59:19;;;;;;;2.13;1.98;;;6.90;99.90;;;;;;5058982;28;20549;-57
2021/01/23 11:01:45;;;;;;;2.80;2.57;;;7.20;99.90;;;;;;5055703;28;20185;-58
2021/01/23 11:04:10;;;;;;;3.03;2.70;;;7.20;99.90;;;;;;5056715;28;20196;-57
2021/01/23 11:06:36;;;;;;;2.50;2.30;;;7.10;99.90;;;;;;5059455;28;20670;-58
2021/01/23 11:09:03;;;;;;;4.50;3.33;;;7.50;99.90;;;;;;5069292;28;20581;-56
2021/01/23 11:11:31;;;;;;;2.50;2.10;;;7.40;99.90;;;;;;5059668;28;20197;-57
2021/01/23 11:13:57;;;;;;;2.58;2.38;;;7.30;99.90;;;;;;5068544;28;20181;-56
2021/01/23 11:16:22;;;;;;;2.70;2.47;;;7.60;99.90;;;;;;5069470;28;20188;-57
2021/01/23 11:18:48;;;;;;;2.67;2.43;;;7.70;99.90;;;;;;5063876;28;20178;-57
2021/01/23 11:21:17;;;;;;;2.47;2.30;;;8.00;99.90;;;;;;5064703;28;20210;-56
2021/01/23 11:23:43;;;;;;;3.10;2.83;;;7.60;99.90;;;;;;5057962;28;20186;-57
2021/01/23 11:26:08;;;;;;;2.53;2.27;;;7.70;99.90;;;;;;5062084;28;20566;-57
2021/01/23 11:28:34;;;;;;;3.00;2.50;;;8.20;99.90;;;;;;5062172;28;20642;-57
2021/01/23 11:31:00;;;;;;;2.30;2.00;;;8.00;99.90;;;;;;5065796;28;20216;-56
2021/01/23 11:33:25;;;;;;;3.10;2.40;;;7.90;99.90;;;;;;5055550;28;20667;-56
2021/01/23 11:35:51;;;;;;;2.87;2.37;;;8.00;99.90;;;;;;5058458;28;20840;-56
2021/01/23 11:38:17;;;;;;;3.43;2.57;;;7.90;99.90;;;;;;5059492;28;20177;-57
2021/01/23 11:40:43;;;;;;;4.00;2.80;;;7.90;99.90;;;;;;5068327;28;20282;-57
2021/01/23 11:43:09;;;;;;;4.43;1.97;;;8.00;99.90;;;;;;5069028;28;20551;-58
2021/01/23 11:45:35;;;;;;;2.20;2.00;;;8.20;99.90;;;;;;5054940;28;20612;-57
2021/01/23 11:48:01;;;;;;;3.60;3.20;;;8.10;99.90;;;;;;5054131;28;20186;-56
2021/01/23 11:50:26;;;;;;;1.80;1.70;;;8.20;99.90;;;;;;5067066;28;20674;-58
2021/01/23 11:52:52;;;;;;;2.30;2.00;;;8.00;99.90;;;;;;5068694;28;20204;-57
2021/01/23 11:55:18;;;;;;;1.97;1.63;;;8.10;99.70;;;;;;5055769;28;20192;-57
2021/01/23 11:57:43;;;;;;;1.83;1.73;;;8.10;99.40;;;;;;5057870;28;20259;-57
2021/01/23 12:00:09;;;;;;;1.90;1.80;;;8.00;99.20;;;;;;5063037;28;20199;-57
2021/01/23 12:02:35;;;;;;;2.60;1.92;;;8.00;99.00;;;;;;5052307;28;20253;-57
2021/01/23 12:05:00;;;;;;;1.70;1.60;;;8.10;99.40;;;;;;5066532;28;20192;-57
2021/01/23 12:07:26;;;;;;;2.93;2.17;;;7.90;99.40;;;;;;5066205;28;20203;-56
2021/01/23 12:09:52;;;;;;;4.20;1.80;;;8.10;99.30;;;;;;5055239;28;20223;-56
2021/01/23 12:12:18;;;;;;;3.67;2.20;;;7.90;99.20;;;;;;5053930;28;20213;-57
2021/01/23 12:14:43;;;;;;;4.00;2.17;;;8.10;99.50;;;;;;5060622;28;20642;-57
2021/01/23 12:17:10;;;;;;;3.00;2.00;;;7.90;99.50;;;;;;5065213;28;20230;-57
2021/01/23 12:19:35;;;;;;;2.33;1.88;;;8.20;99.20;;;;;;5053433;28;20570;-57
2021/01/23 12:22:01;;;;;;;2.23;2.03;;;8.00;98.60;;;;;;5068178;28;20181;-56
2021/01/23 12:24:28;;;;;;;2.00;1.80;;;7.90;98.80;;;;;;5067358;28;20227;-57
2021/01/23 12:26:54;;;;;;;1.90;1.50;;;7.80;99.30;;;;;;5072929;28;20189;-57
2021/01/23 12:29:19;;;;;;;1.83;1.73;;;7.80;99.20;;;;;;5066428;28;20243;-56
2021/01/23 12:31:45;;;;;;;2.27;2.07;;;8.10;99.50;;;;;;5054820;28;20217;-57
2021/01/23 12:34:11;;;;;;;2.47;2.27;;;8.00;99.30;;;;;;5052028;28;20496;-56
2021/01/23 12:36:37;;;;;;;2.03;1.73;;;8.10;99.50;;;;;;5057145;28;20677;-58
2021/01/23 12:39:03;;;;;;;3.28;1.83;;;7.90;99.20;;;;;;5051996;28;20247;-56
2021/01/23 12:41:29;;;;;;;2.15;1.95;;;8.00;99.40;;;;;;5052061;28;20538;-57
2021/01/23 12:43:55;;;;;;;2.50;2.10;;;7.80;99.30;;;;;;5047595;28;20186;-57
2021/01/23 12:46:20;;;;;;;2.40;2.10;;;7.80;99.00;;;;;;5063047;28;20272;-56
2021/01/23 12:48:49;;;;;;;1.90;1.80;;;8.00;99.10;;;;;;5067158;28;20196;-56
2021/01/23 12:51:16;;;;;;;4.03;2.00;;;7.80;98.90;;;;;;5059997;28;20208;-57
2021/01/23 12:53:42;;;;;;;1.90;1.80;;;7.90;99.20;;;;;;5055882;28;20182;-56
2021/01/23 12:56:08;;;;;;;3.50;2.47;;;7.90;99.30;;;;;;5051953;28;20193;-57
2021/01/23 12:58:33;;;;;;;1.80;1.60;;;8.10;99.00;;;;;;5066748;28;20212;-57
2021/01/23 13:00:59;;;;;;;4.83;2.07;;;7.80;99.20;;;;;;5056885;28;20440;-57
2021/01/23 13:03:25;;;;;;;2.10;1.90;;;7.80;99.40;;;;;;5055306;28;20216;-58